createdAt,value
2023-01-06T00:01:17.023Z,3.30
2023-01-06T00:03:44.017Z,4.00
2023-01-06T00:06:12.115Z,3.75
2023-01-06T00:08:40.539Z,3.65
2023-01-06T00:13:23.510Z,2.80
2023-01-06T00:15:50.423Z,3.00
2023-01-06T00:18:16.996Z,3.15
2023-01-06T00:20:43.602Z,2.72
2023-01-06T00:23:10.209Z,2.80
2023-01-06T00:25:37.147Z,2.05
2023-01-06T00:28:03.875Z,2.10
2023-01-06T00:30:32.212Z,2.85
2023-01-06T00:32:58.872Z,2.00
2023-01-06T00:35:25.482Z,3.28
2023-01-06T00:37:52.060Z,2.65
2023-01-06T00:40:18.650Z,3.13
2023-01-06T00:42:45.176Z,2.40
2023-01-06T00:45:11.940Z,2.53
2023-01-06T00:47:38.613Z,2.40
2023-01-06T00:50:05.747Z,2.05
2023-01-06T00:52:32.436Z,2.05
2023-01-06T00:54:59.164Z,2.53
2023-01-06T00:57:25.992Z,2.22
2023-01-06T00:59:52.709Z,2.13
2023-01-06T01:02:19.721Z,2.05
2023-01-06T01:04:46.719Z,2.63
2023-01-06T01:07:13.578Z,3.03
2023-01-06T01:09:40.250Z,2.50
2023-01-06T01:12:09.922Z,2.10
2023-01-06T01:14:42.046Z,2.60
2023-01-06T01:17:11.377Z,2.05
2023-01-06T01:19:38.913Z,2.53
2023-01-06T01:22:06.030Z,2.20
2023-01-06T01:24:32.818Z,2.78
2023-01-06T01:26:59.715Z,3.10
2023-01-06T01:29:26.996Z,3.78
2023-01-06T01:31:54.464Z,3.40
2023-01-06T01:34:22.204Z,3.15
2023-01-06T01:36:50.939Z,5.57
2023-01-06T01:39:20.164Z,3.20
2023-01-06T01:41:47.236Z,1.75
2023-01-06T01:45:05.911Z,2.00
2023-01-06T01:48:04.865Z,1.80
2023-01-06T01:50:46.391Z,2.33
2023-01-06T01:53:30.766Z,2.23
2023-01-06T01:56:03.120Z,2.15
2023-01-06T01:58:38.624Z,2.35
2023-01-06T02:01:08.755Z,2.10
2023-01-06T02:03:37.375Z,2.00
2023-01-06T02:06:16.402Z,2.40
2023-01-06T02:09:10.905Z,2.17
2023-01-06T02:11:41.648Z,2.25
2023-01-06T02:14:16.319Z,2.17
2023-01-06T02:16:54.745Z,2.22
2023-01-06T02:19:36.854Z,2.10
2023-01-06T02:22:31.492Z,2.20
2023-01-06T02:25:04.290Z,3.65
2023-01-06T02:27:52.109Z,2.75
2023-01-06T02:30:56.627Z,1.80
2023-01-06T02:33:27.701Z,3.15
2023-01-06T02:35:57.558Z,2.45
2023-01-06T02:38:39.344Z,2.13
2023-01-06T02:41:07.905Z,2.20
2023-01-06T02:43:42.570Z,2.70
2023-01-06T02:46:30.383Z,2.50
2023-01-06T02:49:12.378Z,2.95
2023-01-06T02:51:59.475Z,2.85
2023-01-06T02:54:43.538Z,3.00
2023-01-06T02:57:32.012Z,2.97
2023-01-06T03:00:34.711Z,2.77
2023-01-06T03:03:08.025Z,3.25
2023-01-06T03:05:38.291Z,5.07
2023-01-06T03:08:15.906Z,3.05
2023-01-06T03:10:46.701Z,3.85
2023-01-06T03:13:30.021Z,3.33
2023-01-06T03:15:59.218Z,3.20
2023-01-06T03:18:26.534Z,3.38
2023-01-06T03:20:57.645Z,3.80
2023-01-06T03:23:24.585Z,3.10
2023-01-06T03:25:51.433Z,4.28
2023-01-06T03:28:22.060Z,4.03
2023-01-06T03:31:32.813Z,4.45
2023-01-06T03:34:05.407Z,3.90
2023-01-06T03:36:44.989Z,3.50
2023-01-06T03:39:25.823Z,4.53
2023-01-06T03:42:35.598Z,2.90
2023-01-06T03:45:32.668Z,5.00
2023-01-06T03:48:41.529Z,4.40
2023-01-06T03:51:33.153Z,3.83
2023-01-06T03:54:30.612Z,6.20
2023-01-06T03:57:25.284Z,4.57
2023-01-06T04:00:24.619Z,5.57
2023-01-06T04:02:58.551Z,4.22
2023-01-06T04:05:28.123Z,4.53
2023-01-06T04:07:57.106Z,6.03
2023-01-06T04:10:24.223Z,4.03
2023-01-06T04:12:54.679Z,4.53
2023-01-06T04:15:31.050Z,3.55
2023-01-06T04:17:59.261Z,5.85
2023-01-06T04:20:30.167Z,4.40
2023-01-06T04:23:19.700Z,4.90
2023-01-06T04:25:46.474Z,5.63
2023-01-06T04:28:21.710Z,4.72
2023-01-06T04:30:50.964Z,5.72
2023-01-06T04:33:17.830Z,4.53
2023-01-06T04:35:46.544Z,4.15
2023-01-06T04:38:16.227Z,4.90
2023-01-06T04:40:43.467Z,4.88
2023-01-06T04:43:16.045Z,5.07
2023-01-06T04:45:44.111Z,5.20
2023-01-06T04:48:11.812Z,5.80
2023-01-06T04:50:38.816Z,5.15
2023-01-06T04:53:06.572Z,5.35
2023-01-06T04:55:33.566Z,6.07
2023-01-06T04:58:00.222Z,4.90
2023-01-06T05:00:26.954Z,4.88
2023-01-06T05:02:53.517Z,5.55
2023-01-06T05:05:20.210Z,5.38
2023-01-06T05:07:46.827Z,5.60
2023-01-06T05:10:13.471Z,5.13
2023-01-06T05:12:40.321Z,5.75
2023-01-06T05:15:07.630Z,5.20
2023-01-06T05:17:34.277Z,5.32
2023-01-06T05:20:01.065Z,4.90
2023-01-06T05:22:27.687Z,5.95
2023-01-06T05:24:54.340Z,5.40
2023-01-06T05:27:20.997Z,6.47
2023-01-06T05:29:47.625Z,4.93
2023-01-06T05:32:14.224Z,7.32
2023-01-06T05:34:40.833Z,5.63
2023-01-06T05:37:07.504Z,5.13
2023-01-06T05:39:34.178Z,5.22
2023-01-06T05:42:00.827Z,5.35
2023-01-06T05:44:28.012Z,4.70
2023-01-06T05:46:54.783Z,5.47
2023-01-06T05:49:21.968Z,5.80
2023-01-06T05:51:48.559Z,4.50
2023-01-06T05:54:15.306Z,5.05
2023-01-06T05:56:42.023Z,6.22
2023-01-06T05:59:08.649Z,5.55
2023-01-06T06:01:35.273Z,4.70
2023-01-06T06:04:02.004Z,5.15
2023-01-06T06:06:30.811Z,5.07
2023-01-06T06:08:58.689Z,5.55
2023-01-06T06:11:25.796Z,5.80
2023-01-06T06:13:55.239Z,5.60
2023-01-06T06:16:24.557Z,5.97
2023-01-06T06:18:53.865Z,5.85
2023-01-06T06:21:23.544Z,5.57
2023-01-06T06:23:52.662Z,6.53
2023-01-06T06:26:19.661Z,6.55
2023-01-06T06:28:46.190Z,6.78
2023-01-06T06:33:25.116Z,6.47
2023-01-06T06:35:58.704Z,5.68
2023-01-06T06:38:26.018Z,6.32
2023-01-06T06:40:52.685Z,6.13
2023-01-06T06:43:19.477Z,6.68
2023-01-06T06:45:47.507Z,6.70
2023-01-06T06:48:16.748Z,5.97
2023-01-06T06:50:43.387Z,6.25
2023-01-06T06:53:10.110Z,7.95
2023-01-06T06:55:36.800Z,7.95
2023-01-06T06:58:03.542Z,5.97
2023-01-06T07:00:30.292Z,7.78
2023-01-06T07:02:56.977Z,8.55
2023-01-06T07:05:25.608Z,9.60
2023-01-06T07:07:52.683Z,7.40
2023-01-06T07:10:19.395Z,8.57
2023-01-06T07:12:46.124Z,7.32
2023-01-06T07:15:12.891Z,10.07
2023-01-06T07:17:41.620Z,9.80
2023-01-06T07:20:09.317Z,8.73
2023-01-06T07:22:40.134Z,8.70
2023-01-06T07:25:08.983Z,8.45
2023-01-06T07:27:36.144Z,9.13
2023-01-06T07:30:04.963Z,8.32
2023-01-06T07:32:31.548Z,8.02
2023-01-06T07:34:58.249Z,7.97
2023-01-06T07:37:24.885Z,8.35
2023-01-06T07:39:51.599Z,8.95
2023-01-06T07:42:18.309Z,9.68
2023-01-06T07:44:45.089Z,7.47
2023-01-06T07:47:11.831Z,9.70
2023-01-06T07:49:38.458Z,7.80
2023-01-06T07:52:05.142Z,10.05
2023-01-06T07:54:31.769Z,7.47
2023-01-06T07:56:58.446Z,7.95
2023-01-06T07:59:25.221Z,8.05
2023-01-06T08:01:51.803Z,8.73
2023-01-06T08:04:18.781Z,6.43
2023-01-06T08:06:45.402Z,7.47
2023-01-06T08:09:12.066Z,8.30
2023-01-06T08:11:38.737Z,6.97
2023-01-06T08:14:05.525Z,7.93
2023-01-06T08:16:32.112Z,6.35
2023-01-06T08:18:58.790Z,6.30
2023-01-06T08:21:25.553Z,6.47
2023-01-06T08:23:52.351Z,5.88
2023-01-06T08:26:18.952Z,7.22
2023-01-06T08:28:46.433Z,6.90
2023-01-06T08:31:18.724Z,6.78
2023-01-06T08:33:45.789Z,6.57
2023-01-06T08:36:15.262Z,7.13
2023-01-06T08:38:41.977Z,7.78
2023-01-06T08:41:09.657Z,6.80
2023-01-06T08:43:36.865Z,6.63
2023-01-06T08:46:08.947Z,6.57
2023-01-06T08:48:35.707Z,7.97
2023-01-06T08:51:14.738Z,6.10
2023-01-06T08:53:41.582Z,9.23
2023-01-06T08:56:20.502Z,7.70
2023-01-06T08:58:58.505Z,6.90
2023-01-06T09:01:32.409Z,7.88
2023-01-06T09:04:00.957Z,7.13
2023-01-06T09:06:28.607Z,7.65
2023-01-06T09:08:57.029Z,7.88
2023-01-06T09:11:24.219Z,6.72
2023-01-06T09:13:51.481Z,6.38
2023-01-06T09:16:19.741Z,6.97
2023-01-06T09:18:52.497Z,8.05
2023-01-06T09:21:21.834Z,6.50
2023-01-06T09:23:50.764Z,6.07
2023-01-06T09:26:18.809Z,6.22
2023-01-06T09:28:45.472Z,6.18
2023-01-06T09:31:12.402Z,5.53
2023-01-06T09:33:39.549Z,5.88
2023-01-06T09:36:07.268Z,7.03
2023-01-06T09:38:33.870Z,7.28
2023-01-06T09:41:13.000Z,6.90
2023-01-06T09:44:09.061Z,6.28
2023-01-06T09:46:38.839Z,7.25
2023-01-06T09:49:38.755Z,6.35
2023-01-06T09:52:19.324Z,6.82
2023-01-06T09:55:02.671Z,6.43
2023-01-06T09:57:33.923Z,6.70
2023-01-06T10:00:08.420Z,7.93
2023-01-06T10:02:38.966Z,7.35
2023-01-06T10:05:28.184Z,6.97
2023-01-06T10:08:20.793Z,7.70
2023-01-06T10:13:29.002Z,28.42
2023-01-06T10:16:27.703Z,21.15
2023-01-06T10:19:26.554Z,7.47
2023-01-06T10:22:10.873Z,6.00
2023-01-06T10:24:55.100Z,6.90
2023-01-06T10:27:36.345Z,10.25
2023-01-06T10:30:06.928Z,6.50
2023-01-06T10:32:36.687Z,5.65
2023-01-06T10:35:03.655Z,9.30
2023-01-06T10:37:39.230Z,18.45
2023-01-06T10:40:29.348Z,12.57
2023-01-06T10:43:06.861Z,8.68
2023-01-06T10:45:45.720Z,12.30
2023-01-06T10:48:15.645Z,18.00
2023-01-06T10:50:42.657Z,13.40
2023-01-06T10:53:14.136Z,13.90
2023-01-06T10:55:44.077Z,11.70
2023-01-06T10:58:17.531Z,25.10
2023-01-06T11:01:12.111Z,10.77
2023-01-06T11:03:42.806Z,6.68
2023-01-06T11:06:21.930Z,11.20
2023-01-06T11:08:48.843Z,7.95
2023-01-06T11:11:27.698Z,8.20
2023-01-06T11:13:59.441Z,9.57
2023-01-06T11:16:33.034Z,9.77
2023-01-06T11:19:08.529Z,8.55
2023-01-06T11:21:43.288Z,10.43
2023-01-06T11:24:31.725Z,12.27
2023-01-06T11:27:14.085Z,14.02
2023-01-06T11:29:40.935Z,13.88
2023-01-06T11:32:18.193Z,10.43
2023-01-06T11:34:55.977Z,8.48
2023-01-06T11:37:34.819Z,12.65
2023-01-06T11:40:16.704Z,9.27
2023-01-06T11:42:44.151Z,8.25
2023-01-06T11:45:32.245Z,12.38
2023-01-06T11:47:59.100Z,17.70
2023-01-06T11:50:25.966Z,12.35
2023-01-06T11:53:14.414Z,13.40
2023-01-06T11:55:41.118Z,7.05
2023-01-06T11:58:19.994Z,13.57
2023-01-06T12:00:46.577Z,6.22
2023-01-06T12:03:21.638Z,5.05
2023-01-06T12:06:14.859Z,8.45
2023-01-06T12:08:59.409Z,12.45
2023-01-06T12:11:53.556Z,5.00
2023-01-06T12:14:29.485Z,5.07
2023-01-06T12:17:16.321Z,5.38
2023-01-06T12:20:21.574Z,4.78
2023-01-06T12:23:01.652Z,4.70
2023-01-06T12:25:35.079Z,5.00
2023-01-06T12:28:21.253Z,5.65
2023-01-06T12:30:55.591Z,11.77
2023-01-06T12:33:33.945Z,6.47
2023-01-06T12:36:08.815Z,5.75
2023-01-06T12:38:47.393Z,6.75
2023-01-06T12:41:25.296Z,4.50
2023-01-06T12:44:16.368Z,4.95
2023-01-06T12:46:55.431Z,4.53
2023-01-06T12:49:30.731Z,3.88
2023-01-06T12:52:03.641Z,5.55
2023-01-06T12:54:33.520Z,4.63
2023-01-06T12:57:09.141Z,5.68
2023-01-06T12:59:35.786Z,6.07
2023-01-06T13:02:16.516Z,7.25
2023-01-06T13:05:11.085Z,9.75
2023-01-06T13:08:08.154Z,11.10
2023-01-06T13:10:40.175Z,23.88
2023-01-06T13:13:36.380Z,15.20
2023-01-06T13:16:15.230Z,16.60
2023-01-06T13:19:07.340Z,18.67
2023-01-06T13:21:37.284Z,24.65
2023-01-06T13:24:27.172Z,32.92
2023-01-06T13:27:03.014Z,15.50
2023-01-06T13:29:46.166Z,14.95
2023-01-06T13:32:15.657Z,13.25
2023-01-06T13:35:05.573Z,19.63
2023-01-06T13:37:36.910Z,40.55
2023-01-06T13:40:11.385Z,34.97
2023-01-06T13:43:02.268Z,23.10
2023-01-06T13:45:32.790Z,37.00
2023-01-06T13:48:01.571Z,36.53
2023-01-06T13:50:28.842Z,44.28
2023-01-06T13:52:55.724Z,27.30
2023-01-06T13:55:23.537Z,32.95
2023-01-06T13:57:50.838Z,34.95
2023-01-06T14:00:25.155Z,42.50
2023-01-06T14:02:51.945Z,40.53
2023-01-06T14:05:21.658Z,33.00
2023-01-06T14:07:59.714Z,35.63
2023-01-06T14:10:36.684Z,71.13
2023-01-06T14:13:07.321Z,41.05
2023-01-06T14:15:36.548Z,53.72
2023-01-06T14:18:04.032Z,49.60
2023-01-06T14:20:37.831Z,39.97
2023-01-06T14:23:18.079Z,44.20
2023-01-06T14:25:53.671Z,65.55
2023-01-06T14:28:20.217Z,58.03
2023-01-06T14:30:48.574Z,64.30
2023-01-06T14:33:35.537Z,63.10
2023-01-06T14:36:06.631Z,69.20
2023-01-06T14:38:42.935Z,68.00
2023-01-06T14:41:49.156Z,51.03
2023-01-06T14:44:18.530Z,27.38
2023-01-06T14:47:07.448Z,26.08
2023-01-06T14:49:55.151Z,43.25
2023-01-06T14:52:38.859Z,24.33
2023-01-06T14:55:12.060Z,17.65
2023-01-06T14:57:39.811Z,19.60
2023-01-06T15:00:16.254Z,15.57
2023-01-06T15:02:46.675Z,25.20
2023-01-06T15:05:23.247Z,47.90
2023-01-06T15:08:04.602Z,72.05
2023-01-06T15:10:35.366Z,58.25
2023-01-06T15:13:03.189Z,58.10
2023-01-06T15:15:32.334Z,54.50
2023-01-06T15:18:01.826Z,54.60
2023-01-06T15:20:35.147Z,60.05
2023-01-06T15:23:02.716Z,52.13
2023-01-06T15:25:31.498Z,62.58
2023-01-06T15:27:58.292Z,88.32
2023-01-06T15:30:27.751Z,114.30
2023-01-06T15:32:56.073Z,81.45
2023-01-06T15:35:27.351Z,82.20
2023-01-06T15:38:20.067Z,158.03
2023-01-06T15:40:46.910Z,139.05
2023-01-06T15:43:17.048Z,101.30
2023-01-06T15:45:55.382Z,70.68
2023-01-06T15:48:29.711Z,70.80
2023-01-06T15:50:57.066Z,55.63
2023-01-06T15:53:28.324Z,156.68
2023-01-06T15:55:58.359Z,85.37
2023-01-06T15:58:43.557Z,45.47
2023-01-06T16:01:18.469Z,31.42
2023-01-06T16:03:51.898Z,122.28
2023-01-06T16:06:28.577Z,68.00
2023-01-06T16:09:25.842Z,43.75
2023-01-06T16:12:16.761Z,82.35
2023-01-06T16:14:46.478Z,25.65
2023-01-06T16:17:19.017Z,24.50
2023-01-06T16:20:00.197Z,24.75
2023-01-06T16:22:29.683Z,82.47
2023-01-06T16:24:56.859Z,45.95
2023-01-06T16:27:27.698Z,26.33
2023-01-06T16:30:14.918Z,20.15
2023-01-06T16:32:43.091Z,16.85
2023-01-06T16:35:22.139Z,21.00
2023-01-06T16:37:49.474Z,25.10
2023-01-06T16:40:17.865Z,38.10
2023-01-06T16:42:45.884Z,57.13
2023-01-06T16:45:31.135Z,91.45
2023-01-06T16:47:58.064Z,67.63
2023-01-06T16:50:39.690Z,49.35
2023-01-06T16:53:18.675Z,26.35
2023-01-06T16:55:45.740Z,22.60
2023-01-06T16:58:20.493Z,73.93
2023-01-06T17:00:52.440Z,72.82
2023-01-06T17:03:22.383Z,61.15
2023-01-06T17:05:49.482Z,33.28
2023-01-06T17:08:25.854Z,24.88
2023-01-06T17:10:52.525Z,18.63
2023-01-06T17:13:39.697Z,16.35
2023-01-06T17:16:15.877Z,14.15
2023-01-06T17:19:06.847Z,13.95
2023-01-06T17:21:35.238Z,13.52
2023-01-06T17:24:04.764Z,14.63
2023-01-06T17:26:31.393Z,12.70
2023-01-06T17:28:59.827Z,16.10
2023-01-06T17:31:35.410Z,16.52
2023-01-06T17:34:10.914Z,14.93
2023-01-06T17:36:40.077Z,16.98
2023-01-06T17:39:28.547Z,15.10
2023-01-06T17:42:02.002Z,17.98
2023-01-06T17:44:38.069Z,20.85
2023-01-06T17:47:29.215Z,24.02
2023-01-06T17:49:57.870Z,22.27
2023-01-06T17:52:31.988Z,31.00
2023-01-06T17:55:43.321Z,33.08
2023-01-06T17:58:18.025Z,26.80
2023-01-06T18:00:45.543Z,22.00
2023-01-06T18:03:18.016Z,21.02
2023-01-06T18:05:45.108Z,19.95
2023-01-06T18:08:16.316Z,17.20
2023-01-06T18:10:45.726Z,15.57
2023-01-06T18:13:34.451Z,15.13
2023-01-06T18:16:04.151Z,18.83
2023-01-06T18:18:38.424Z,20.15
2023-01-06T18:21:17.252Z,22.55
2023-01-06T18:23:47.275Z,20.75
2023-01-06T18:26:31.392Z,22.30
2023-01-06T18:29:02.158Z,22.70
2023-01-06T18:31:36.058Z,25.75
2023-01-06T18:34:20.715Z,21.15
2023-01-06T18:36:49.587Z,23.52
2023-01-06T18:39:21.270Z,23.85
2023-01-06T18:41:48.737Z,21.45
2023-01-06T18:44:19.551Z,22.15
2023-01-06T18:46:46.274Z,21.98
2023-01-06T18:49:15.787Z,19.77
2023-01-06T18:51:43.399Z,20.27
2023-01-06T18:54:21.802Z,21.85
2023-01-06T18:56:48.906Z,19.92
2023-01-06T18:59:18.848Z,20.33
2023-01-06T19:01:50.593Z,19.63
2023-01-06T19:04:29.112Z,23.50
2023-01-06T19:07:00.684Z,29.77
2023-01-06T19:09:45.874Z,36.53
2023-01-06T19:12:32.772Z,41.85
2023-01-06T19:15:17.536Z,48.67
2023-01-06T19:17:46.697Z,45.00
2023-01-06T19:20:17.436Z,45.30
2023-01-06T19:22:44.968Z,49.20
2023-01-06T19:25:37.330Z,54.25
2023-01-06T19:28:15.194Z,50.33
2023-01-06T19:30:45.400Z,56.25
2023-01-06T19:33:34.403Z,56.55
2023-01-06T19:36:04.319Z,58.25
2023-01-06T19:38:38.535Z,57.95
2023-01-06T19:41:15.344Z,63.00
2023-01-06T19:43:43.071Z,65.43
2023-01-06T19:46:24.414Z,66.30
2023-01-06T19:48:55.667Z,69.70
2023-01-06T19:51:35.924Z,78.30
2023-01-06T19:54:17.240Z,85.82
2023-01-06T19:56:44.102Z,77.10
2023-01-06T19:59:27.262Z,68.07
2023-01-06T20:02:12.176Z,71.93
2023-01-06T20:04:42.893Z,48.78
2023-01-06T20:07:12.457Z,44.58
2023-01-06T20:09:39.150Z,36.78
2023-01-06T20:12:06.001Z,40.35
2023-01-06T20:14:32.827Z,42.80
2023-01-06T20:17:01.994Z,41.78
2023-01-06T20:19:31.812Z,41.47
2023-01-06T20:22:01.025Z,48.08
2023-01-06T20:24:27.863Z,46.53
2023-01-06T20:26:54.520Z,44.58
2023-01-06T20:29:21.420Z,47.25
2023-01-06T20:31:48.308Z,41.25
2023-01-06T20:34:15.173Z,42.13
2023-01-06T20:36:41.840Z,38.50
2023-01-06T20:39:08.702Z,39.28
2023-01-06T20:41:35.418Z,39.38
2023-01-06T20:44:04.767Z,35.20
2023-01-06T20:46:34.155Z,33.55
2023-01-06T20:49:03.866Z,36.22
2023-01-06T20:51:33.646Z,37.20
2023-01-06T20:54:11.999Z,37.63
2023-01-06T20:56:39.212Z,39.05
2023-01-06T20:59:08.870Z,38.28
2023-01-06T21:01:41.781Z,39.75
2023-01-06T21:04:08.817Z,37.97
2023-01-06T21:06:40.661Z,34.75
2023-01-06T21:09:09.917Z,40.13
2023-01-06T21:11:37.821Z,44.30
2023-01-06T21:14:04.941Z,51.45
2023-01-06T21:16:31.922Z,46.15
2023-01-06T21:19:03.658Z,39.97
2023-01-06T21:21:32.997Z,43.20
2023-01-06T21:24:00.396Z,43.60
2023-01-06T21:26:27.215Z,41.33
2023-01-06T21:28:54.979Z,47.20
2023-01-06T21:31:24.355Z,41.95
2023-01-06T21:33:52.402Z,43.70
2023-01-06T21:36:19.181Z,44.80
2023-01-06T21:38:45.792Z,39.63
2023-01-06T21:41:31.066Z,41.05
2023-01-06T21:43:58.041Z,60.55
2023-01-06T21:46:24.798Z,40.58
2023-01-06T21:48:51.577Z,43.53
2023-01-06T21:51:18.672Z,40.00
2023-01-06T21:53:46.187Z,38.22
2023-01-06T21:56:12.927Z,38.17
2023-01-06T21:58:40.992Z,37.90
2023-01-06T22:01:07.749Z,33.33
2023-01-06T22:03:37.560Z,33.70
2023-01-06T22:06:04.901Z,38.80
2023-01-06T22:08:32.731Z,25.77
2023-01-06T22:11:00.902Z,26.67
2023-01-06T22:13:28.546Z,27.27
2023-01-06T22:15:55.649Z,25.83
2023-01-06T22:18:22.561Z,25.15
2023-01-06T22:20:49.219Z,38.22
2023-01-06T22:23:20.856Z,25.98
2023-01-06T22:25:47.680Z,23.43
2023-01-06T22:28:14.258Z,34.78
2023-01-06T22:30:40.934Z,24.42
2023-01-06T22:33:07.650Z,38.70
2023-01-06T22:35:34.260Z,26.27
2023-01-06T22:38:01.138Z,24.05
2023-01-06T22:40:28.271Z,41.20
2023-01-06T22:42:54.907Z,23.83
2023-01-06T22:45:21.649Z,22.80
2023-01-06T22:47:48.305Z,61.72
2023-01-06T22:50:15.021Z,24.40
2023-01-06T22:52:41.978Z,59.33
2023-01-06T22:55:09.529Z,31.92
2023-01-06T22:57:36.150Z,24.25
2023-01-06T23:00:08.587Z,22.45
2023-01-06T23:02:35.433Z,39.13
2023-01-06T23:05:02.315Z,22.83
2023-01-06T23:07:29.266Z,21.48
2023-01-06T23:09:55.924Z,25.98
2023-01-06T23:12:22.642Z,25.38
2023-01-06T23:14:49.218Z,26.02
2023-01-06T23:17:15.973Z,23.30
2023-01-06T23:19:42.497Z,23.83
2023-01-06T23:22:09.215Z,24.05
2023-01-06T23:24:35.826Z,23.35
2023-01-06T23:27:02.719Z,21.90
2023-01-06T23:29:30.780Z,20.92
2023-01-06T23:31:57.469Z,23.38
2023-01-06T23:34:24.005Z,23.60
2023-01-06T23:36:50.723Z,24.33
2023-01-06T23:39:17.448Z,22.55
2023-01-06T23:41:44.120Z,21.60
2023-01-06T23:44:16.543Z,21.13
2023-01-06T23:46:44.485Z,19.30
2023-01-06T23:51:39.974Z,22.00
2023-01-06T23:54:07.805Z,21.30
2023-01-06T23:56:37.344Z,26.40
2023-01-06T23:59:05.959Z,22.70
